Time;durP1;ratioP1;P1;durP2;ratioP2;P2;SDS_P1;SDS_P2;PMS_P1;PMS_P2;Temp;Humidity;BMP_temperature;BMP_pressure;BME280_temperature;BME280_humidity;BME280_pressure;Samples;Min_cycle;Max_cycle;Signal;HPM_P1;HPM_P2
2021/10/04 00:02:03;;;;;;;1.27;1.17;;;14.20;99.10;;;;;;4989487;28;20206;-85
2021/10/04 00:04:31;;;;;;;1.27;1.00;;;14.20;99.20;;;;;;4976960;28;20470;-83
2021/10/04 00:06:58;;;;;;;1.35;1.08;;;14.20;99.20;;;;;;4978950;28;20219;-82
2021/10/04 00:09:25;;;;;;;1.13;1.02;;;14.20;99.40;;;;;;4962583;28;20310;-82
2021/10/04 00:11:53;;;;;;;1.27;1.10;;;14.20;99.90;;;;;;4961392;29;20827;-83
2021/10/04 00:14:21;;;;;;;1.67;1.13;;;14.10;99.90;;;;;;4991261;28;20214;-83
2021/10/04 00:16:48;;;;;;;1.23;1.13;;;14.10;99.90;;;;;;4994527;28;20214;-83
2021/10/04 00:19:16;;;;;;;2.20;1.13;;;14.10;99.90;;;;;;4950602;28;1258093;-83
2021/10/04 00:21:45;;;;;;;1.73;1.07;;;14.10;99.90;;;;;;4996782;28;20210;-82
2021/10/04 00:24:12;;;;;;;1.05;1.00;;;14.10;99.90;;;;;;4979961;28;20976;-83
2021/10/04 00:26:39;;;;;;;1.30;0.90;;;14.10;99.90;;;;;;4975653;29;20190;-81
2021/10/04 00:29:07;;;;;;;1.73;1.10;;;14.10;99.90;;;;;;4983047;28;20223;-83
2021/10/04 00:31:34;;;;;;;3.58;1.08;;;14.00;99.90;;;;;;4991243;28;20203;-85
2021/10/04 00:34:01;;;;;;;0.95;0.93;;;14.00;99.90;;;;;;4981894;28;20208;-84
2021/10/04 00:36:28;;;;;;;1.42;1.20;;;14.00;99.90;;;;;;4971000;29;20280;-84
2021/10/04 00:38:56;;;;;;;1.50;0.88;;;14.00;99.90;;;;;;4982033;28;20223;-83
2021/10/04 00:41:23;;;;;;;1.25;1.05;;;14.00;99.90;;;;;;4982580;28;20206;-84
2021/10/04 00:43:50;;;;;;;2.00;1.38;;;13.90;99.90;;;;;;4964764;29;20222;-83
2021/10/04 00:46:17;;;;;;;1.40;1.30;;;13.90;99.90;;;;;;4968709;28;20237;-86
2021/10/04 00:48:45;;;;;;;3.80;1.38;;;13.90;99.90;;;;;;4981145;28;20751;-84
2021/10/04 00:51:12;;;;;;;1.08;0.98;;;13.90;99.90;;;;;;4982662;28;20214;-84
2021/10/04 00:53:39;;;;;;;1.20;1.08;;;13.90;99.90;;;;;;4975291;28;20203;-85
2021/10/04 00:56:07;;;;;;;4.03;1.02;;;13.80;99.90;;;;;;4978840;28;20184;-84
2021/10/04 00:58:34;;;;;;;2.10;1.00;;;13.90;99.90;;;;;;4977581;28;20232;-86
2021/10/04 01:01:01;;;;;;;1.00;1.00;;;13.90;99.90;;;;;;4978828;28;20229;-84
2021/10/04 01:03:28;;;;;;;1.83;1.48;;;13.90;99.90;;;;;;4978171;28;20246;-84
2021/10/04 01:05:55;;;;;;;1.10;1.00;;;13.90;99.90;;;;;;4978223;28;20191;-83
2021/10/04 01:08:22;;;;;;;1.27;1.05;;;13.90;99.90;;;;;;4976643;28;20222;-84
2021/10/04 01:10:49;;;;;;;4.97;1.38;;;13.90;99.90;;;;;;4978811;28;20211;-85
2021/10/04 01:13:18;;;;;;;0.80;0.80;;;13.90;99.90;;;;;;4997584;28;20219;-84
2021/10/04 01:15:45;;;;;;;1.73;1.05;;;13.90;99.90;;;;;;4998982;28;20190;-84
2021/10/04 01:18:12;;;;;;;0.85;0.85;;;13.80;99.90;;;;;;4985313;28;20238;-85
2021/10/04 01:20:40;;;;;;;2.05;1.10;;;13.80;99.90;;;;;;4976442;28;20270;-83
2021/10/04 01:23:07;;;;;;;0.90;0.90;;;13.90;99.90;;;;;;4963283;28;20316;-84
2021/10/04 01:25:34;;;;;;;0.90;0.90;;;13.90;99.90;;;;;;4962792;29;20242;-84
2021/10/04 01:28:02;;;;;;;1.48;1.30;;;13.90;99.90;;;;;;4973090;28;20257;-85
2021/10/04 01:30:32;;;;;;;1.92;1.30;;;13.80;99.90;;;;;;4981165;28;20268;-84
2021/10/04 01:32:59;;;;;;;1.30;1.20;;;13.80;99.90;;;;;;4970868;28;20237;-86
2021/10/04 01:35:27;;;;;;;1.17;1.08;;;13.80;99.90;;;;;;4961899;29;20263;-84
2021/10/04 01:37:55;;;;;;;1.20;1.10;;;13.80;99.90;;;;;;4964266;29;20240;-83
2021/10/04 01:40:22;;;;;;;2.20;1.45;;;13.80;99.90;;;;;;4962741;29;20268;-83
2021/10/04 01:42:49;;;;;;;2.05;1.85;;;13.80;99.90;;;;;;4991837;28;20241;-86
2021/10/04 01:45:18;;;;;;;2.15;1.30;;;13.70;99.90;;;;;;4997307;28;20218;-84
2021/10/04 01:47:46;;;;;;;4.20;1.80;;;13.70;99.90;;;;;;4980850;28;20194;-84
2021/10/04 01:50:14;;;;;;;4.50;1.30;;;13.70;99.90;;;;;;4976255;29;20330;-85
2021/10/04 01:52:41;;;;;;;1.30;1.15;;;13.70;99.90;;;;;;4995457;28;20202;-85
2021/10/04 01:55:11;;;;;;;1.10;1.00;;;13.70;99.90;;;;;;4986276;28;20284;-81
2021/10/04 01:57:39;;;;;;;1.00;0.90;;;13.60;99.90;;;;;;4989629;28;20209;-85
2021/10/04 02:00:10;;;;;;;1.60;1.50;;;13.60;99.90;;;;;;4994025;28;20237;-83
2021/10/04 02:02:37;;;;;;;1.40;1.00;;;13.50;99.90;;;;;;4990463;28;20213;-82
2021/10/04 02:05:05;;;;;;;1.10;1.00;;;13.40;99.90;;;;;;4975050;28;20206;-83
2021/10/04 02:07:32;;;;;;;0.90;0.90;;;13.40;99.90;;;;;;4965517;29;20241;-83
2021/10/04 02:09:59;;;;;;;2.95;0.90;;;13.30;99.90;;;;;;4970960;28;20308;-82
2021/10/04 02:12:27;;;;;;;0.60;0.60;;;13.10;99.90;;;;;;4984872;28;20605;-84
2021/10/04 02:14:54;;;;;;;0.80;0.80;;;13.10;99.90;;;;;;4991093;28;20244;-83
2021/10/04 02:17:21;;;;;;;1.05;0.93;;;13.20;99.90;;;;;;4987588;28;20237;-84
2021/10/04 02:19:48;;;;;;;3.65;0.90;;;13.20;99.90;;;;;;4983014;28;20267;-83
2021/10/04 02:22:15;;;;;;;1.35;0.98;;;13.20;99.90;;;;;;4984891;28;20237;-81
2021/10/04 02:24:42;;;;;;;1.88;0.98;;;13.20;99.90;;;;;;4974775;28;20234;-83
2021/10/04 02:27:12;;;;;;;1.48;1.08;;;13.20;99.90;;;;;;4962522;29;20241;-84
2021/10/04 02:29:45;;;;;;;1.20;1.05;;;13.10;99.90;;;;;;4971579;28;20300;-84
2021/10/04 02:32:12;;;;;;;1.05;1.05;;;13.10;99.90;;;;;;4992727;28;20256;-84
2021/10/04 02:34:39;;;;;;;1.30;1.20;;;13.00;99.90;;;;;;4966495;29;20247;-83
2021/10/04 02:37:06;;;;;;;1.23;1.10;;;13.00;99.90;;;;;;4971192;29;20662;-83
2021/10/04 02:39:33;;;;;;;2.80;1.00;;;13.00;99.90;;;;;;4972551;28;20229;-84
2021/10/04 02:42:00;;;;;;;3.58;0.90;;;13.10;99.90;;;;;;4971900;29;20214;-85
2021/10/04 02:44:27;;;;;;;1.98;1.20;;;13.10;99.90;;;;;;4976160;28;20253;-82
2021/10/04 02:46:56;;;;;;;1.40;1.20;;;13.00;99.90;;;;;;4971943;29;20218;-83
2021/10/04 02:49:23;;;;;;;2.40;1.17;;;13.00;99.90;;;;;;4975963;28;20233;-82
2021/10/04 02:51:50;;;;;;;2.70;1.15;;;13.10;99.90;;;;;;4964590;29;20270;-83
2021/10/04 02:54:17;;;;;;;3.65;1.38;;;13.10;99.90;;;;;;4976398;28;20210;-87
2021/10/04 02:56:44;;;;;;;3.10;1.30;;;13.10;99.90;;;;;;4979556;28;20561;-86
2021/10/04 02:59:13;;;;;;;1.70;1.15;;;13.10;99.90;;;;;;4970180;28;20237;-84
2021/10/04 03:01:40;;;;;;;1.10;1.00;;;13.00;99.90;;;;;;4962659;29;20245;-85
2021/10/04 03:04:09;;;;;;;1.25;1.15;;;13.00;99.90;;;;;;4973092;28;20228;-84
2021/10/04 03:06:36;;;;;;;3.90;1.10;;;12.90;99.90;;;;;;4981245;28;20225;-84
2021/10/04 03:09:03;;;;;;;1.42;0.90;;;13.00;99.90;;;;;;4980836;28;20256;-85
2021/10/04 03:11:30;;;;;;;3.38;1.05;;;12.90;99.90;;;;;;4981094;28;20221;-85
2021/10/04 03:13:57;;;;;;;1.67;1.08;;;13.00;99.90;;;;;;4982315;28;20211;-85
2021/10/04 03:16:24;;;;;;;1.48;0.65;;;13.00;99.90;;;;;;4995017;28;20188;-86
2021/10/04 03:18:51;;;;;;;1.00;0.88;;;13.00;99.90;;;;;;4992029;28;20710;-83
2021/10/04 03:21:19;;;;;;;1.25;1.15;;;13.00;99.90;;;;;;4980614;28;20218;-86
2021/10/04 03:23:46;;;;;;;1.30;1.10;;;13.00;99.90;;;;;;4979736;28;20217;-87
2021/10/04 03:26:13;;;;;;;1.08;0.88;;;12.90;99.90;;;;;;4995559;28;20197;-87
2021/10/04 03:28:40;;;;;;;1.15;1.05;;;12.90;99.90;;;;;;4996668;28;20225;-85
2021/10/04 03:31:07;;;;;;;1.42;0.75;;;12.90;99.90;;;;;;4978648;28;20206;-86
2021/10/04 03:33:35;;;;;;;1.10;1.00;;;12.90;99.90;;;;;;4973435;29;20283;-86
2021/10/04 03:36:02;;;;;;;1.30;1.02;;;12.80;99.90;;;;;;4982183;28;20202;-86
2021/10/04 03:38:30;;;;;;;1.20;0.90;;;12.90;99.90;;;;;;4987564;28;20210;-87
2021/10/04 03:40:57;;;;;;;0.90;0.90;;;12.90;99.90;;;;;;4981004;28;20214;-86
2021/10/04 03:43:25;;;;;;;2.85;1.25;;;12.90;99.90;;;;;;4979266;28;20194;-85
2021/10/04 03:45:52;;;;;;;1.17;1.10;;;12.80;99.90;;;;;;4979319;28;20193;-86
2021/10/04 03:48:19;;;;;;;2.45;0.85;;;12.80;99.90;;;;;;4979147;28;20201;-86
2021/10/04 03:50:46;;;;;;;1.15;1.02;;;12.80;99.90;;;;;;4978968;28;20205;-87
2021/10/04 03:53:13;;;;;;;1.23;1.00;;;12.80;99.90;;;;;;4979053;28;20209;-86
2021/10/04 03:55:42;;;;;;;1.33;0.90;;;12.80;99.90;;;;;;4966827;28;20199;-85
2021/10/04 03:58:12;;;;;;;1.65;1.00;;;12.80;99.90;;;;;;4969189;28;20220;-83
2021/10/04 04:00:39;;;;;;;1.63;1.33;;;12.80;99.90;;;;;;4981285;28;20296;-84
2021/10/04 04:03:06;;;;;;;2.17;1.23;;;12.80;99.90;;;;;;4981538;28;20213;-84
2021/10/04 04:05:33;;;;;;;0.80;0.80;;;12.70;99.90;;;;;;4971327;28;20289;-84
2021/10/04 04:08:00;;;;;;;2.58;1.20;;;12.70;99.90;;;;;;4971953;29;20210;-84
2021/10/04 04:10:27;;;;;;;2.40;1.48;;;12.70;99.90;;;;;;4974030;29;20328;-84
2021/10/04 04:12:55;;;;;;;1.80;1.65;;;12.70;99.90;;;;;;4973226;29;20244;-85
2021/10/04 04:15:22;;;;;;;1.38;1.13;;;12.70;99.90;;;;;;4973748;29;20216;-84
2021/10/04 04:17:49;;;;;;;1.80;1.70;;;12.70;99.90;;;;;;4975785;28;20220;-84
2021/10/04 04:20:17;;;;;;;2.58;2.00;;;12.70;99.90;;;;;;4982227;28;20213;-84
2021/10/04 04:22:44;;;;;;;3.28;2.17;;;12.70;99.90;;;;;;4972450;28;20273;-84
2021/10/04 04:25:12;;;;;;;2.60;2.40;;;12.70;99.90;;;;;;4989270;28;20225;-84
2021/10/04 04:27:40;;;;;;;3.40;3.10;;;12.70;99.90;;;;;;4995443;28;20197;-82
2021/10/04 04:30:12;;;;;;;3.10;2.67;;;12.70;99.90;;;;;;4996282;28;20226;-84
2021/10/04 04:32:40;;;;;;;3.03;2.72;;;12.70;99.90;;;;;;4982641;28;20224;-83
2021/10/04 04:35:08;;;;;;;3.35;3.05;;;12.80;99.90;;;;;;4981964;28;20228;-84
2021/10/04 04:37:36;;;;;;;5.07;3.00;;;12.80;99.90;;;;;;4978537;28;20292;-84
2021/10/04 04:40:04;;;;;;;3.83;3.25;;;12.70;99.90;;;;;;4979338;28;20567;-85
2021/10/04 04:42:32;;;;;;;3.95;3.30;;;12.80;99.90;;;;;;4968276;28;20256;-84
2021/10/04 04:44:59;;;;;;;7.35;3.10;;;12.80;99.90;;;;;;4966573;29;20254;-84
2021/10/04 04:47:27;;;;;;;3.90;2.97;;;12.80;99.90;;;;;;4970132;28;20233;-85
2021/10/04 04:49:54;;;;;;;4.35;3.20;;;12.80;99.90;;;;;;4972124;29;20249;-85
2021/10/04 04:52:21;;;;;;;3.35;2.75;;;12.80;99.90;;;;;;4984436;28;20206;-86
2021/10/04 04:54:48;;;;;;;3.53;3.22;;;12.80;99.90;;;;;;4989272;28;20239;-86
2021/10/04 04:57:15;;;;;;;3.45;2.60;;;12.80;99.90;;;;;;4996491;28;20200;-86
2021/10/04 04:59:42;;;;;;;4.38;3.33;;;12.90;99.90;;;;;;4991214;28;20222;-86
2021/10/04 05:02:08;;;;;;;2.72;2.30;;;12.80;99.90;;;;;;4988070;28;20248;-83
2021/10/04 05:04:37;;;;;;;3.90;2.90;;;12.90;99.90;;;;;;4996025;28;20209;-86
2021/10/04 05:07:04;;;;;;;3.88;2.95;;;12.90;99.90;;;;;;4994576;28;20200;-87
2021/10/04 05:09:31;;;;;;;4.45;3.08;;;12.80;99.90;;;;;;4996753;28;20237;-87
2021/10/04 05:11:58;;;;;;;6.55;3.10;;;12.80;99.90;;;;;;5000307;28;20193;-85
2021/10/04 05:14:25;;;;;;;3.67;2.95;;;12.80;99.90;;;;;;4998287;28;20197;-86
2021/10/04 05:16:52;;;;;;;3.03;2.00;;;12.80;99.90;;;;;;4978947;28;20216;-85
2021/10/04 05:19:19;;;;;;;3.55;2.08;;;12.80;99.90;;;;;;4986425;28;20768;-85
2021/10/04 05:21:47;;;;;;;2.17;1.98;;;12.70;99.90;;;;;;4993026;28;20240;-87
2021/10/04 05:24:14;;;;;;;1.50;1.40;;;12.70;99.90;;;;;;4990079;28;20221;-85
2021/10/04 05:26:41;;;;;;;1.65;1.55;;;12.70;99.90;;;;;;4996478;28;20210;-84
2021/10/04 05:29:09;;;;;;;1.98;1.73;;;12.70;99.90;;;;;;4979856;28;20225;-85
2021/10/04 05:31:36;;;;;;;3.47;1.40;;;12.70;99.90;;;;;;4980087;28;20373;-85
2021/10/04 05:34:03;;;;;;;3.30;1.75;;;12.80;99.90;;;;;;4994361;28;20201;-85
2021/10/04 05:36:30;;;;;;;2.90;1.40;;;12.70;99.90;;;;;;4998478;28;20219;-85
2021/10/04 05:39:01;;;;;;;2.03;1.30;;;12.70;99.90;;;;;;4986710;28;20217;-82
2021/10/04 05:41:28;;;;;;;1.98;1.52;;;12.70;99.90;;;;;;4981786;28;20183;-84
2021/10/04 05:43:55;;;;;;;3.80;1.60;;;12.70;99.90;;;;;;4982542;28;20195;-86
2021/10/04 05:46:22;;;;;;;1.63;1.52;;;12.70;99.90;;;;;;4984525;28;20245;-84
2021/10/04 05:48:49;;;;;;;2.15;1.73;;;12.70;99.90;;;;;;4981139;28;20206;-80
2021/10/04 05:51:16;;;;;;;1.65;1.55;;;12.70;99.90;;;;;;4992311;28;20213;-81
2021/10/04 05:53:43;;;;;;;1.38;1.20;;;12.70;99.90;;;;;;4983279;28;20190;-81
2021/10/04 05:56:11;;;;;;;2.45;1.48;;;12.60;99.90;;;;;;4987847;28;20209;-82
2021/10/04 05:58:38;;;;;;;1.70;1.60;;;12.60;99.90;;;;;;4999059;28;20240;-81
2021/10/04 06:01:05;;;;;;;2.58;1.50;;;12.60;99.90;;;;;;4991931;28;20213;-81
2021/10/04 06:03:32;;;;;;;1.55;1.42;;;12.60;99.90;;;;;;4982209;28;20210;-80
2021/10/04 06:05:59;;;;;;;1.17;0.80;;;12.70;99.90;;;;;;4981535;28;20256;-80
2021/10/04 06:08:26;;;;;;;1.33;1.23;;;12.60;99.90;;;;;;4995713;28;20185;-80
2021/10/04 06:10:53;;;;;;;2.78;1.98;;;12.60;99.90;;;;;;4995457;28;20206;-81
2021/10/04 06:13:21;;;;;;;1.10;1.00;;;12.60;99.90;;;;;;4997745;28;20569;-80
2021/10/04 06:15:48;;;;;;;0.77;0.77;;;12.60;99.90;;;;;;5000152;28;20217;-78
2021/10/04 06:18:15;;;;;;;1.10;1.00;;;12.60;99.90;;;;;;4992109;28;20416;-79
2021/10/04 06:20:42;;;;;;;1.88;1.00;;;12.50;99.90;;;;;;4996115;28;20217;-79
2021/10/04 06:23:10;;;;;;;1.42;0.95;;;12.50;99.90;;;;;;5000023;28;20209;-80
2021/10/04 06:25:37;;;;;;;1.45;1.20;;;12.50;99.90;;;;;;4996923;28;20294;-79
2021/10/04 06:28:04;;;;;;;1.15;0.90;;;12.50;99.90;;;;;;4999566;28;20228;-79
2021/10/04 06:30:33;;;;;;;0.90;0.90;;;12.50;99.90;;;;;;4983358;28;20261;-78
2021/10/04 06:33:00;;;;;;;1.45;1.10;;;12.50;99.90;;;;;;4986068;28;20185;-79
2021/10/04 06:41:30;;;;;;;2.25;0.90;;;12.50;99.90;;;;;;5262892;23;20254;-79
2021/10/04 06:43:57;;;;;;;1.10;1.10;;;12.50;99.90;;;;;;4957515;29;20178;-84
2021/10/04 06:46:25;;;;;;;1.55;0.77;;;12.50;99.90;;;;;;4960506;28;20270;-80
2021/10/04 06:48:52;;;;;;;1.35;0.93;;;12.50;99.90;;;;;;4947113;29;20340;-81
2021/10/04 07:00:32;;;;;;;1.02;1.00;;;12.60;99.90;;;;;;4971443;28;20237;-80
2021/10/04 07:31:42;;;;;;;2.20;1.75;;;12.80;99.90;;;;;;4977752;28;20272;-78
2021/10/04 07:34:09;;;;;;;1.70;1.60;;;12.80;99.90;;;;;;4974592;28;20272;-78
2021/10/04 07:36:36;;;;;;;4.43;2.00;;;12.80;99.90;;;;;;4976103;28;20297;-79
2021/10/04 07:39:06;;;;;;;3.17;1.67;;;12.80;99.90;;;;;;4971170;28;20321;-80
2021/10/04 07:41:33;;;;;;;1.65;1.55;;;12.90;99.90;;;;;;4956999;29;20213;-78
2021/10/04 07:44:01;;;;;;;2.10;1.90;;;12.90;99.90;;;;;;4961257;29;20234;-82
2021/10/04 07:46:28;;;;;;;2.83;1.85;;;12.90;99.90;;;;;;4969184;29;20248;-80
2021/10/04 07:48:57;;;;;;;3.80;1.95;;;12.90;99.90;;;;;;4969293;28;20230;-79
2021/10/04 07:51:24;;;;;;;2.47;1.88;;;12.80;99.90;;;;;;4967710;29;20272;-80
2021/10/04 07:53:52;;;;;;;1.80;1.67;;;12.90;99.90;;;;;;4958108;29;20238;-79
2021/10/04 07:56:19;;;;;;;2.13;1.73;;;13.00;99.90;;;;;;4961090;29;20663;-80
2021/10/04 07:58:46;;;;;;;1.90;1.80;;;13.00;99.90;;;;;;4971384;28;20260;-78
2021/10/04 08:01:13;;;;;;;1.77;1.67;;;12.90;99.90;;;;;;4969496;29;20274;-78
2021/10/04 08:03:40;;;;;;;1.40;1.30;;;12.90;99.90;;;;;;4973009;29;20212;-82
2021/10/04 08:06:09;;;;;;;2.45;1.42;;;13.00;99.90;;;;;;4974259;28;20298;-80
2021/10/04 08:08:36;;;;;;;1.52;1.42;;;13.10;99.90;;;;;;4959087;28;20214;-81
2021/10/04 08:11:03;;;;;;;1.67;1.05;;;13.00;99.90;;;;;;4976266;28;20189;-79
2021/10/04 08:13:30;;;;;;;1.58;1.48;;;13.00;99.90;;;;;;4971361;28;20213;-79
2021/10/04 08:15:57;;;;;;;4.68;1.10;;;13.00;99.90;;;;;;4964131;29;20222;-80
2021/10/04 08:18:23;;;;;;;1.25;1.05;;;13.10;99.90;;;;;;4973555;29;20221;-80
2021/10/04 08:20:50;;;;;;;1.35;1.20;;;13.10;99.90;;;;;;4971302;28;20568;-79
2021/10/04 08:23:19;;;;;;;3.47;1.15;;;13.10;99.90;;;;;;4958879;29;20201;-79
2021/10/04 08:25:46;;;;;;;1.35;1.02;;;13.10;99.90;;;;;;4959659;29;20229;-78
2021/10/04 08:28:13;;;;;;;1.10;1.00;;;13.10;99.90;;;;;;4959707;29;20241;-79
2021/10/04 08:30:40;;;;;;;2.13;1.20;;;13.10;99.90;;;;;;4961158;28;20262;-79
2021/10/04 08:33:06;;;;;;;1.13;0.90;;;13.10;99.90;;;;;;4960053;29;20212;-78
2021/10/04 08:35:34;;;;;;;1.40;1.17;;;13.10;99.90;;;;;;4959863;28;20225;-80
2021/10/04 08:38:01;;;;;;;1.45;1.20;;;13.20;99.90;;;;;;4964628;29;20217;-77
2021/10/04 08:40:48;;;;;;;2.67;1.30;;;13.20;99.90;;;;;;4969737;28;20250;-81
2021/10/04 08:44:20;;;;;;;1.15;1.00;;;13.20;99.90;;;;;;4968310;29;20210;-79
2021/10/04 08:46:57;;;;;;;1.30;1.20;;;13.20;99.90;;;;;;4922948;29;20292;-82
2021/10/04 08:49:26;;;;;;;1.48;0.90;;;13.20;99.90;;;;;;4920282;29;20294;-80
2021/10/04 08:52:37;;;;;;;1.63;1.25;;;13.10;99.90;;;;;;4943473;29;20210;-82
2021/10/04 08:55:58;;;;;;;0.98;0.98;;;13.10;99.90;;;;;;4864178;29;20679;-81
2021/10/04 08:58:37;;;;;;;0.90;0.77;;;13.20;99.90;;;;;;4814410;29;20220;-81
2021/10/04 09:01:31;;;;;;;3.33;1.40;;;13.20;99.90;;;;;;4813992;29;20305;-81
2021/10/04 09:04:01;;;;;;;1.88;1.20;;;13.20;99.90;;;;;;4773466;30;20217;-79
2021/10/04 09:06:29;;;;;;;0.82;0.80;;;13.20;99.90;;;;;;4783271;30;20258;-80
2021/10/04 09:09:08;;;;;;;2.08;1.33;;;13.30;99.90;;;;;;4779917;30;20248;-83
2021/10/04 09:11:38;;;;;;;1.13;0.98;;;13.30;99.90;;;;;;4794503;30;20236;-79
2021/10/04 09:14:48;;;;;;;1.75;1.20;;;13.30;99.90;;;;;;4784424;30;20619;-83
2021/10/04 09:17:39;;;;;;;1.88;1.30;;;13.30;99.90;;;;;;4775226;30;20214;-83
2021/10/04 09:24:41;;;;;;;0.85;0.85;;;13.50;99.90;;;;;;4693522;30;20213;-83
2021/10/04 09:27:24;;;;;;;0.80;0.80;;;13.50;99.90;;;;;;4707339;30;20219;-81
2021/10/04 09:29:53;;;;;;;1.85;0.80;;;13.60;99.90;;;;;;4798571;29;20262;-79
2021/10/04 09:32:29;;;;;;;1.90;1.20;;;13.60;99.90;;;;;;4873985;29;20203;-79
2021/10/04 09:35:16;;;;;;;4.65;1.02;;;13.60;99.90;;;;;;4921889;29;20200;-81
2021/10/04 09:37:44;;;;;;;1.23;1.13;;;13.70;99.90;;;;;;4935294;29;20565;-81
2021/10/04 09:40:30;;;;;;;1.35;1.00;;;13.70;99.90;;;;;;4921417;29;20235;-81
2021/10/04 09:42:57;;;;;;;0.95;0.80;;;13.80;99.90;;;;;;4958601;29;20235;-82
2021/10/04 09:45:26;;;;;;;1.80;0.85;;;13.90;99.90;;;;;;4958614;29;20261;-81
2021/10/04 09:47:55;;;;;;;2.05;0.80;;;13.90;99.90;;;;;;4961590;29;20238;-82
2021/10/04 09:50:27;;;;;;;2.40;0.93;;;13.90;99.90;;;;;;4964662;29;20301;-80
2021/10/04 09:52:56;;;;;;;1.00;0.70;;;13.90;99.90;;;;;;4964392;29;20226;-83
2021/10/04 09:55:26;;;;;;;1.25;0.80;;;13.90;99.90;;;;;;4965992;29;20237;-84
2021/10/04 09:58:10;;;;;;;1.60;1.15;;;14.00;99.90;;;;;;4965935;29;20210;-83
2021/10/04 10:00:42;;;;;;;1.00;0.90;;;14.20;99.90;;;;;;4967312;29;20668;-79
2021/10/04 10:03:11;;;;;;;0.90;0.90;;;14.20;99.90;;;;;;4967053;29;20215;-84
2021/10/04 10:05:41;;;;;;;0.70;0.70;;;14.40;99.90;;;;;;4968025;29;20250;-80
2021/10/04 10:08:09;;;;;;;0.70;0.70;;;14.50;99.10;;;;;;4967541;29;20459;-83
2021/10/04 10:10:36;;;;;;;0.77;0.75;;;14.70;98.50;;;;;;4968820;29;20255;-85
2021/10/04 10:13:05;;;;;;;2.30;0.83;;;14.70;96.40;;;;;;4968924;29;20240;-82
2021/10/04 10:15:33;;;;;;;1.55;0.80;;;14.80;94.60;;;;;;4967435;29;20486;-82
2021/10/04 10:18:06;;;;;;;1.53;0.60;;;15.00;94.10;;;;;;4964674;29;20711;-81
2021/10/04 10:20:35;;;;;;;0.70;0.60;;;15.20;92.90;;;;;;4968600;28;20475;-83
2021/10/04 10:23:01;;;;;;;0.60;0.53;;;15.40;91.40;;;;;;4977745;29;20449;-82
2021/10/04 10:25:35;;;;;;;1.00;0.80;;;15.60;89.80;;;;;;4972300;29;20493;-82
2021/10/04 10:28:03;;;;;;;0.73;0.73;;;15.70;89.00;;;;;;4975618;28;20544;-84
2021/10/04 10:30:30;;;;;;;0.70;0.60;;;15.70;87.20;;;;;;4967528;28;20502;-83
2021/10/04 10:32:58;;;;;;;0.93;0.80;;;15.70;86.40;;;;;;4968457;29;20481;-81
2021/10/04 10:35:57;;;;;;;1.73;1.10;;;15.70;86.50;;;;;;4966867;29;20449;-81
2021/10/04 10:38:58;;;;;;;0.80;0.80;;;15.80;85.80;;;;;;4905724;29;20995;-82
2021/10/04 10:41:25;;;;;;;1.03;0.90;;;15.80;83.40;;;;;;4966705;29;20496;-86
2021/10/04 10:44:10;;;;;;;0.90;0.70;;;15.70;84.70;;;;;;4963970;28;20496;-81
2021/10/04 10:46:54;;;;;;;2.57;0.90;;;15.80;85.80;;;;;;4947879;29;20732;-83
2021/10/04 10:49:58;;;;;;;0.87;0.87;;;15.70;85.90;;;;;;4949306;29;20485;-82
2021/10/04 10:52:28;;;;;;;0.70;0.70;;;15.60;85.60;;;;;;4965808;29;20496;-84
2021/10/04 10:54:56;;;;;;;0.70;0.70;;;15.60;87.70;;;;;;4969504;29;20465;-84
2021/10/04 10:57:25;;;;;;;1.40;0.77;;;15.70;88.90;;;;;;4975220;29;20441;-82
2021/10/04 11:00:15;;;;;;;1.13;1.00;;;15.80;86.30;;;;;;4968758;28;20516;-83
2021/10/04 11:02:53;;;;;;;0.60;0.60;;;16.00;85.20;;;;;;4973839;28;20459;-82
2021/10/04 11:05:49;;;;;;;2.43;0.70;;;16.10;81.80;;;;;;4970870;29;20497;-83
2021/10/04 11:08:19;;;;;;;0.77;0.50;;;16.20;80.10;;;;;;4970954;28;20467;-82
2021/10/04 11:11:12;;;;;;;0.50;0.50;;;16.30;79.50;;;;;;4970119;28;20449;-82
2021/10/04 11:13:39;;;;;;;1.80;1.33;;;16.10;79.90;;;;;;4975545;28;20519;-82
2021/10/04 11:16:38;;;;;;;1.13;0.80;;;16.20;80.50;;;;;;5004115;23;20492;-77
2021/10/04 11:19:07;;;;;;;0.60;0.60;;;16.20;80.20;;;;;;4954915;28;20454;-77
2021/10/04 11:21:35;;;;;;;4.67;0.67;;;16.10;78.50;;;;;;4962584;28;20473;-78
2021/10/04 11:24:07;;;;;;;1.53;0.80;;;16.10;79.30;;;;;;4983633;28;20438;-74
2021/10/04 11:26:36;;;;;;;1.37;0.80;;;15.90;78.10;;;;;;4977547;28;20489;-73
2021/10/04 11:29:06;;;;;;;1.33;0.60;;;15.90;78.20;;;;;;4978234;28;20500;-79
2021/10/04 11:31:35;;;;;;;0.60;0.47;;;15.80;78.20;;;;;;4977515;28;20457;-77
2021/10/04 11:34:05;;;;;;;2.60;0.60;;;15.70;79.60;;;;;;4976852;28;20463;-78
2021/10/04 11:36:37;;;;;;;1.30;0.70;;;15.70;80.00;;;;;;4974315;29;20516;-74
2021/10/04 11:39:10;;;;;;;1.03;0.70;;;15.60;79.40;;;;;;4973762;28;20202;-74
2021/10/04 11:41:41;;;;;;;2.67;0.80;;;15.60;81.40;;;;;;4962775;29;20458;-75
2021/10/04 11:44:10;;;;;;;0.97;0.77;;;15.50;81.60;;;;;;4964830;29;20457;-78
2021/10/04 11:46:41;;;;;;;0.80;0.50;;;15.70;82.00;;;;;;4966811;28;20521;-77
2021/10/04 11:49:10;;;;;;;0.80;0.80;;;15.70;81.50;;;;;;4963960;28;20559;-77
2021/10/04 11:51:45;;;;;;;0.93;0.83;;;15.70;82.10;;;;;;4959646;29;20536;-74
2021/10/04 11:54:15;;;;;;;0.80;0.80;;;15.80;81.60;;;;;;4960122;29;20492;-76
2021/10/04 11:56:43;;;;;;;4.40;0.83;;;15.70;82.50;;;;;;4957267;28;20878;-77
2021/10/04 11:59:10;;;;;;;1.13;0.90;;;15.80;86.00;;;;;;4956363;29;20876;-75
2021/10/04 12:01:39;;;;;;;1.27;0.70;;;15.90;85.30;;;;;;4964444;29;20810;-77
2021/10/04 12:04:09;;;;;;;0.67;0.67;;;16.00;83.70;;;;;;4963818;29;20459;-76
2021/10/04 12:06:37;;;;;;;3.03;0.80;;;16.00;83.60;;;;;;4958470;28;20842;-76
2021/10/04 12:09:06;;;;;;;0.80;0.80;;;16.00;83.40;;;;;;4957457;29;20461;-74
2021/10/04 12:11:37;;;;;;;0.70;0.70;;;16.10;82.70;;;;;;4958793;29;20472;-75
2021/10/04 12:14:07;;;;;;;1.00;0.97;;;15.90;81.60;;;;;;4961984;29;20528;-76
2021/10/04 12:16:35;;;;;;;0.73;0.73;;;15.80;81.60;;;;;;4962755;28;20478;-76
2021/10/04 12:19:03;;;;;;;2.40;1.27;;;15.70;81.50;;;;;;4963662;29;20540;-77
2021/10/04 12:21:42;;;;;;;1.10;0.80;;;15.90;83.10;;;;;;4963212;29;20438;-74
2021/10/04 12:24:16;;;;;;;1.10;1.00;;;16.10;84.20;;;;;;4962270;29;20527;-74
2021/10/04 12:26:49;;;;;;;1.60;0.90;;;16.30;82.00;;;;;;4961016;29;20472;-76
2021/10/04 12:29:30;;;;;;;1.37;1.10;;;16.50;79.50;;;;;;4961146;28;20465;-75
2021/10/04 12:31:58;;;;;;;1.20;1.10;;;16.50;78.30;;;;;;4962286;29;20472;-76
2021/10/04 12:34:29;;;;;;;1.43;1.33;;;16.60;75.10;;;;;;4960812;29;21126;-77
2021/10/04 12:36:57;;;;;;;1.10;1.00;;;16.30;73.40;;;;;;4958605;29;20455;-76
2021/10/04 12:39:39;;;;;;;1.97;1.47;;;16.10;75.40;;;;;;4967224;29;20457;-78
2021/10/04 12:42:08;;;;;;;0.90;0.90;;;16.00;78.10;;;;;;4971589;28;20469;-77
2021/10/04 12:44:39;;;;;;;1.40;1.27;;;16.10;79.00;;;;;;4972531;28;20524;-72
2021/10/04 12:47:11;;;;;;;4.63;3.50;;;16.10;79.30;;;;;;4969201;28;20484;-75
2021/10/04 12:49:54;;;;;;;1.40;1.30;;;16.10;79.70;;;;;;4966723;28;20468;-74
2021/10/04 12:52:27;;;;;;;1.20;1.10;;;16.20;76.70;;;;;;4962475;29;20492;-77
2021/10/04 12:54:57;;;;;;;1.00;0.90;;;16.20;77.10;;;;;;4940658;29;20454;-73
2021/10/04 12:57:29;;;;;;;1.30;1.20;;;16.40;78.00;;;;;;4952785;29;20483;-74
2021/10/04 13:00:02;;;;;;;0.80;0.80;;;16.50;76.70;;;;;;4955415;29;20469;-76
2021/10/04 13:02:30;;;;;;;1.20;1.03;;;16.40;75.30;;;;;;4954165;28;20457;-74
2021/10/04 13:04:58;;;;;;;1.30;0.90;;;16.40;76.90;;;;;;4955113;28;20473;-75
2021/10/04 13:07:28;;;;;;;0.90;0.90;;;16.50;78.70;;;;;;4957073;28;20629;-72
2021/10/04 13:09:56;;;;;;;1.83;1.10;;;16.70;79.00;;;;;;4958675;29;20462;-73
2021/10/04 13:12:29;;;;;;;2.10;1.00;;;16.60;74.60;;;;;;4958517;29;20908;-74
2021/10/04 13:14:58;;;;;;;2.47;1.20;;;16.30;75.00;;;;;;4964335;29;20453;-77
2021/10/04 13:17:25;;;;;;;0.90;0.90;;;16.50;78.60;;;;;;4961396;29;21019;-75
2021/10/04 13:19:52;;;;;;;0.60;0.60;;;16.50;74.50;;;;;;4958346;29;21036;-77
2021/10/04 13:22:20;;;;;;;1.63;1.20;;;16.50;75.50;;;;;;4960794;29;20457;-76
2021/10/04 13:24:47;;;;;;;1.20;1.10;;;16.40;75.80;;;;;;4965135;29;20941;-74
2021/10/04 13:27:15;;;;;;;1.10;1.00;;;16.40;76.30;;;;;;4963424;29;20489;-77
2021/10/04 13:29:44;;;;;;;0.90;0.90;;;16.40;76.20;;;;;;4962244;29;20551;-75
2021/10/04 13:32:11;;;;;;;1.93;1.00;;;16.30;73.30;;;;;;4966374;29;20549;-75
2021/10/04 13:34:38;;;;;;;0.73;0.73;;;16.30;73.30;;;;;;4959936;29;20463;-77
2021/10/04 13:37:07;;;;;;;1.40;0.80;;;16.40;74.10;;;;;;4958304;29;20480;-75
2021/10/04 13:39:33;;;;;;;2.80;1.00;;;16.30;73.30;;;;;;4957901;29;20485;-76
2021/10/04 13:42:00;;;;;;;2.80;1.03;;;16.50;73.50;;;;;;4957818;29;20461;-76
2021/10/04 13:44:28;;;;;;;2.50;1.13;;;16.50;73.50;;;;;;4958127;29;20540;-75
2021/10/04 13:46:56;;;;;;;0.90;0.90;;;16.60;73.60;;;;;;4957523;29;20584;-75
2021/10/04 13:49:23;;;;;;;0.70;0.70;;;16.90;73.20;;;;;;4960467;29;20541;-76
2021/10/04 13:52:00;;;;;;;0.80;0.80;;;17.00;68.80;;;;;;4958941;29;20483;-77